sensor_id;sensor_type;location;lat;lon;timestamp;pressure;altitude;pressure_sealevel;temperature;humidity
47785;BME280;35233;55.686;37.848;2023-05-23T00:00:58;100145.81;;;18.01;53.15
47785;BME280;35233;55.686;37.848;2023-05-23T00:03:24;100164.13;;;18.09;53.42
47785;BME280;35233;55.686;37.848;2023-05-23T00:05:50;100158.94;;;18.06;53.55
47785;BME280;35233;55.686;37.848;2023-05-23T00:08:16;100159.97;;;18.03;53.26
47785;BME280;35233;55.686;37.848;2023-05-23T00:10:42;100166.19;;;18.04;53.44
47785;BME280;35233;55.686;37.848;2023-05-23T00:13:07;100165.31;;;18.03;53.02
47785;BME280;35233;55.686;37.848;2023-05-23T00:15:36;100168.88;;;18.04;53.55
47785;BME280;35233;55.686;37.848;2023-05-23T00:18:02;100175.06;;;18.04;52.72
47785;BME280;35233;55.686;37.848;2023-05-23T00:20:28;100158.34;;;18.01;53.35
47785;BME280;35233;55.686;37.848;2023-05-23T00:22:55;100162.63;;;18.03;53.15
47785;BME280;35233;55.686;37.848;2023-05-23T00:25:25;100176.94;;;18.02;52.99
47785;BME280;35233;55.686;37.848;2023-05-23T00:27:59;100169.88;;;18.01;53.01
47785;BME280;35233;55.686;37.848;2023-05-23T00:30:25;100168.13;;;18.00;53.35
47785;BME280;35233;55.686;37.848;2023-05-23T00:32:52;100156.69;;;17.98;53.20
47785;BME280;35233;55.686;37.848;2023-05-23T00:35:19;100175.28;;;18.00;53.16
47785;BME280;35233;55.686;37.848;2023-05-23T00:37:46;100158.94;;;17.88;52.91
47785;BME280;35233;55.686;37.848;2023-05-23T00:40:11;100164.91;;;17.94;52.87
47785;BME280;35233;55.686;37.848;2023-05-23T00:42:37;100159.81;;;17.89;53.34
47785;BME280;35233;55.686;37.848;2023-05-23T00:45:04;100166.63;;;17.95;52.94
47785;BME280;35233;55.686;37.848;2023-05-23T00:47:29;100159.66;;;17.92;53.21
47785;BME280;35233;55.686;37.848;2023-05-23T00:49:56;100160.53;;;17.93;52.75
47785;BME280;35233;55.686;37.848;2023-05-23T00:52:21;100164.06;;;17.93;53.52
47785;BME280;35233;55.686;37.848;2023-05-23T00:54:46;100161.75;;;17.85;53.21
47785;BME280;35233;55.686;37.848;2023-05-23T00:57:12;100165.00;;;17.92;53.41
47785;BME280;35233;55.686;37.848;2023-05-23T00:59:38;100157.38;;;17.84;52.92
47785;BME280;35233;55.686;37.848;2023-05-23T01:02:05;100154.53;;;17.87;52.87
47785;BME280;35233;55.686;37.848;2023-05-23T01:04:31;100159.66;;;17.92;52.91
47785;BME280;35233;55.686;37.848;2023-05-23T01:06:58;100151.81;;;17.89;53.19
47785;BME280;35233;55.686;37.848;2023-05-23T01:09:26;100156.34;;;17.87;53.21
47785;BME280;35233;55.686;37.848;2023-05-23T01:15:02;100159.66;;;17.92;52.84
47785;BME280;35233;55.686;37.848;2023-05-23T01:26:16;100149.19;;;17.87;53.03
47785;BME280;35233;55.686;37.848;2023-05-23T01:28:46;100150.91;;;17.88;52.91
47785;BME280;35233;55.686;37.848;2023-05-23T01:31:13;100155.25;;;17.91;52.67
47785;BME280;35233;55.686;37.848;2023-05-23T01:33:41;100138.44;;;17.89;52.71
47785;BME280;35233;55.686;37.848;2023-05-23T01:36:07;100141.13;;;17.89;52.93
47785;BME280;35233;55.686;37.848;2023-05-23T01:38:33;100144.56;;;17.91;52.89
47785;BME280;35233;55.686;37.848;2023-05-23T01:40:59;100150.75;;;17.92;52.96
47785;BME280;35233;55.686;37.848;2023-05-23T01:43:25;100146.47;;;17.89;52.49
47785;BME280;35233;55.686;37.848;2023-05-23T01:45:54;100148.97;;;17.92;52.65
47785;BME280;35233;55.686;37.848;2023-05-23T01:48:22;100147.22;;;17.91;52.39
47785;BME280;35233;55.686;37.848;2023-05-23T01:50:49;100143.00;;;17.87;52.88
47785;BME280;35233;55.686;37.848;2023-05-23T01:53:20;100142.69;;;17.93;52.53
47785;BME280;35233;55.686;37.848;2023-05-23T01:55:47;100150.75;;;17.92;52.46
47785;BME280;35233;55.686;37.848;2023-05-23T01:58:13;100142.69;;;17.93;52.47
47785;BME280;35233;55.686;37.848;2023-05-23T02:00:39;100148.19;;;17.90;52.70
47785;BME280;35233;55.686;37.848;2023-05-23T02:03:05;100134.88;;;17.88;52.72
47785;BME280;35233;55.686;37.848;2023-05-23T02:05:31;100153.28;;;17.95;52.59
47785;BME280;35233;55.686;37.848;2023-05-23T02:07:56;100155.09;;;17.94;52.54
47785;BME280;35233;55.686;37.848;2023-05-23T02:10:22;100145.19;;;17.96;52.41
47785;BME280;35233;55.686;37.848;2023-05-23T02:12:47;100138.72;;;18.00;52.11
47785;BME280;35233;55.686;37.848;2023-05-23T02:15:13;100137.97;;;17.98;52.30
47785;BME280;35233;55.686;37.848;2023-05-23T02:17:39;100142.19;;;18.02;52.01
47785;BME280;35233;55.686;37.848;2023-05-23T02:20:07;100135.84;;;18.05;51.99
47785;BME280;35233;55.686;37.848;2023-05-23T02:22:34;100142.28;;;18.01;52.37
47785;BME280;35233;55.686;37.848;2023-05-23T02:25:00;100141.19;;;18.05;52.32
47785;BME280;35233;55.686;37.848;2023-05-23T02:27:25;100132.13;;;18.07;51.96
47785;BME280;35233;55.686;37.848;2023-05-23T02:29:50;100129.69;;;18.03;51.94
47785;BME280;35233;55.686;37.848;2023-05-23T02:32:16;100140.22;;;18.06;52.21
47785;BME280;35233;55.686;37.848;2023-05-23T02:34:41;100144.88;;;18.02;51.93
47785;BME280;35233;55.686;37.848;2023-05-23T02:37:12;100133.31;;;18.02;52.14
47785;BME280;35233;55.686;37.848;2023-05-23T02:39:38;100144.50;;;18.10;52.18
47785;BME280;35233;55.686;37.848;2023-05-23T02:42:03;100150.84;;;18.07;51.69
47785;BME280;35233;55.686;37.848;2023-05-23T02:44:29;100141.88;;;18.08;52.13
47785;BME280;35233;55.686;37.848;2023-05-23T02:46:54;100140.16;;;18.07;51.71
47785;BME280;35233;55.686;37.848;2023-05-23T02:49:20;100149.84;;;18.10;52.14
47785;BME280;35233;55.686;37.848;2023-05-23T02:51:45;100155.03;;;18.13;51.80
47785;BME280;35233;55.686;37.848;2023-05-23T02:54:11;100149.75;;;18.12;51.65
47785;BME280;35233;55.686;37.848;2023-05-23T02:56:36;100146.84;;;18.16;51.89
47785;BME280;35233;55.686;37.848;2023-05-23T02:59:01;100131.28;;;18.07;51.64
47785;BME280;35233;55.686;37.848;2023-05-23T03:01:27;100146.84;;;18.16;51.61
47785;BME280;35233;55.686;37.848;2023-05-23T03:03:53;100142.19;;;18.20;51.58
47785;BME280;35233;55.686;37.848;2023-05-23T03:06:18;100153.69;;;18.22;51.58
47785;BME280;35233;55.686;37.848;2023-05-23T03:08:47;100147.31;;;18.24;51.49
47785;BME280;35233;55.686;37.848;2023-05-23T03:11:12;100143.63;;;18.27;51.30
47785;BME280;35233;55.686;37.848;2023-05-23T03:13:38;100151.47;;;18.30;51.43
47785;BME280;35233;55.686;37.848;2023-05-23T03:16:03;100149.56;;;18.32;51.55
47785;BME280;35233;55.686;37.848;2023-05-23T03:18:29;100145.03;;;18.34;51.26
47785;BME280;35233;55.686;37.848;2023-05-23T03:20:55;100148.47;;;18.36;51.50
47785;BME280;35233;55.686;37.848;2023-05-23T03:23:20;100146.56;;;18.38;51.09
47785;BME280;35233;55.686;37.848;2023-05-23T03:25:45;100139.28;;;18.42;51.02
47785;BME280;35233;55.686;37.848;2023-05-23T03:28:11;100137.19;;;18.47;51.08
47785;BME280;35233;55.686;37.848;2023-05-23T03:30:37;100134.69;;;18.44;50.78
47785;BME280;35233;55.686;37.848;2023-05-23T03:33:02;100136.97;;;18.51;51.14
47785;BME280;35233;55.686;37.848;2023-05-23T03:35:28;100123.66;;;18.50;50.75
47785;BME280;35233;55.686;37.848;2023-05-23T03:37:54;100140.16;;;18.58;50.54
47785;BME280;35233;55.686;37.848;2023-05-23T03:40:19;100131.22;;;18.59;50.81
47785;BME280;35233;55.686;37.848;2023-05-23T03:42:47;100137.41;;;18.60;50.81
47785;BME280;35233;55.686;37.848;2023-05-23T03:45:13;100131.38;;;18.56;50.88
47785;BME280;35233;55.686;37.848;2023-05-23T03:47:38;100137.59;;;18.57;50.85
47785;BME280;35233;55.686;37.848;2023-05-23T03:50:04;100140.59;;;18.50;50.83
47785;BME280;35233;55.686;37.848;2023-05-23T03:52:30;100145.31;;;18.45;51.29
47785;BME280;35233;55.686;37.848;2023-05-23T03:54:56;100136.75;;;18.39;51.13
47785;BME280;35233;55.686;37.848;2023-05-23T03:57:21;100117.63;;;18.29;51.22
47785;BME280;35233;55.686;37.848;2023-05-23T03:59:47;100134.94;;;18.39;51.00
47785;BME280;35233;55.686;37.848;2023-05-23T04:02:12;100138.25;;;18.44;51.18
47785;BME280;35233;55.686;37.848;2023-05-23T04:04:56;100127.38;;;18.47;51.21
47785;BME280;35233;55.686;37.848;2023-05-23T04:07:22;100129.91;;;18.50;50.82
47785;BME280;35233;55.686;37.848;2023-05-23T04:09:50;100132.41;;;18.53;50.95
47785;BME280;35233;55.686;37.848;2023-05-23T04:12:16;100127.97;;;18.52;50.75
47785;BME280;35233;55.686;37.848;2023-05-23T04:14:42;100123.66;;;18.50;50.67
47785;BME280;35233;55.686;37.848;2023-05-23T04:17:07;100124.38;;;18.53;50.70
47785;BME280;35233;55.686;37.848;2023-05-23T04:19:54;100127.50;;;18.62;50.86
47785;BME280;35233;55.686;37.848;2023-05-23T04:22:20;100137.16;;;18.64;50.69
47785;BME280;35233;55.686;37.848;2023-05-23T04:24:46;100133.63;;;18.64;50.52
47785;BME280;35233;55.686;37.848;2023-05-23T04:27:12;100133.38;;;18.68;50.37
47785;BME280;35233;55.686;37.848;2023-05-23T04:29:56;100122.66;;;19.49;51.94
47785;BME280;35233;55.686;37.848;2023-05-23T04:32:22;100130.47;;;20.14;51.07
47785;BME280;35233;55.686;37.848;2023-05-23T04:35:07;100120.03;;;20.24;50.57
47785;BME280;35233;55.686;37.848;2023-05-23T04:37:35;100130.31;;;20.31;50.53
47785;BME280;35233;55.686;37.848;2023-05-23T04:40:05;100114.78;;;20.22;50.51
47785;BME280;35233;55.686;37.848;2023-05-23T04:42:31;100116.63;;;20.22;50.75
47785;BME280;35233;55.686;37.848;2023-05-23T04:45:12;100133.47;;;20.24;50.19
47785;BME280;35233;55.686;37.848;2023-05-23T04:47:38;100134.63;;;20.20;50.60
47785;BME280;35233;55.686;37.848;2023-05-23T04:50:03;100123.28;;;20.15;50.64
47785;BME280;35233;55.686;37.848;2023-05-23T05:01:00;100165.09;;;20.33;50.83
47785;BME280;35233;55.686;37.848;2023-05-23T05:03:44;100172.69;;;20.41;50.77
47785;BME280;35233;55.686;37.848;2023-05-23T05:06:10;100163.59;;;20.43;50.93
47785;BME280;35233;55.686;37.848;2023-05-23T05:08:35;100161.81;;;20.58;50.25
47785;BME280;35233;55.686;37.848;2023-05-23T05:11:01;100165.09;;;20.63;50.28
47785;BME280;35233;55.686;37.848;2023-05-23T05:13:45;100164.31;;;20.75;50.12
47785;BME280;35233;55.686;37.848;2023-05-23T05:16:10;100162.59;;;20.74;50.01
47785;BME280;35233;55.686;37.848;2023-05-23T05:18:37;100164.25;;;20.77;49.39
47785;BME280;35233;55.686;37.848;2023-05-23T05:21:03;100169.69;;;20.75;49.37
47785;BME280;35233;55.686;37.848;2023-05-23T05:23:30;100167.28;;;20.71;49.78
47785;BME280;35233;55.686;37.848;2023-05-23T05:25:59;100156.84;;;20.66;49.81
47785;BME280;35233;55.686;37.848;2023-05-23T05:28:24;100157.13;;;20.62;49.80
47785;BME280;35233;55.686;37.848;2023-05-23T05:30:50;100162.66;;;20.58;50.00
47785;BME280;35233;55.686;37.848;2023-05-23T05:33:21;100158.94;;;20.61;49.54
47785;BME280;35233;55.686;37.848;2023-05-23T05:35:50;100150.69;;;20.64;50.03
47785;BME280;35233;55.686;37.848;2023-05-23T05:38:16;100158.47;;;20.69;49.83
47785;BME280;35233;55.686;37.848;2023-05-23T05:40:41;100153.00;;;20.70;49.69
47785;BME280;35233;55.686;37.848;2023-05-23T05:43:07;100143.22;;;20.69;49.70
47785;BME280;35233;55.686;37.848;2023-05-23T05:45:32;100150.50;;;20.67;49.78
47785;BME280;35233;55.686;37.848;2023-05-23T05:47:58;100152.13;;;20.70;49.56
47785;BME280;35233;55.686;37.848;2023-05-23T05:50:23;100150.97;;;20.74;49.77
47785;BME280;35233;55.686;37.848;2023-05-23T05:52:49;100148.22;;;20.75;49.19
47785;BME280;35233;55.686;37.848;2023-05-23T05:55:15;100148.22;;;20.75;49.71
47785;BME280;35233;55.686;37.848;2023-05-23T05:57:41;100152.59;;;20.76;49.52
47785;BME280;35233;55.686;37.848;2023-05-23T06:00:11;100145.44;;;20.77;49.30
47785;BME280;35233;55.686;37.848;2023-05-23T06:02:40;100141.19;;;20.73;49.37
47785;BME280;35233;55.686;37.848;2023-05-23T06:05:12;100139.56;;;20.70;49.38
47785;BME280;35233;55.686;37.848;2023-05-23T06:07:38;100134.78;;;20.75;49.34
47785;BME280;35233;55.686;37.848;2023-05-23T06:10:05;100137.00;;;20.83;49.69
47785;BME280;35233;55.686;37.848;2023-05-23T06:12:31;100138.63;;;20.86;49.26
47785;BME280;35233;55.686;37.848;2023-05-23T06:14:57;100127.88;;;20.86;49.18
47785;BME280;35233;55.686;37.848;2023-05-23T06:17:22;100128.44;;;20.91;49.35
47785;BME280;35233;55.686;37.848;2023-05-23T06:19:48;100116.75;;;20.92;48.77
47785;BME280;35233;55.686;37.848;2023-05-23T06:22:13;100123.75;;;20.94;49.07
47785;BME280;35233;55.686;37.848;2023-05-23T06:24:39;100125.75;;;20.91;48.90
47785;BME280;35233;55.686;37.848;2023-05-23T06:27:04;100119.06;;;20.84;49.41
47785;BME280;35233;55.686;37.848;2023-05-23T06:29:30;100117.63;;;20.92;48.84
47785;BME280;35233;55.686;37.848;2023-05-23T06:31:56;100117.38;;;21.10;49.03
47785;BME280;35233;55.686;37.848;2023-05-23T06:34:22;100111.88;;;21.25;48.70
47785;BME280;35233;55.686;37.848;2023-05-23T06:36:47;100105.63;;;21.39;48.21
47785;BME280;35233;55.686;37.848;2023-05-23T06:39:14;100093.19;;;21.51;47.88
47785;BME280;35233;55.686;37.848;2023-05-23T06:41:39;100097.97;;;21.60;47.30
47785;BME280;35233;55.686;37.848;2023-05-23T06:44:05;100092.16;;;21.66;47.43
47785;BME280;35233;55.686;37.848;2023-05-23T06:46:31;100078.50;;;21.69;47.72
47785;BME280;35233;55.686;37.848;2023-05-23T06:48:56;100085.00;;;21.80;47.38
47785;BME280;35233;55.686;37.848;2023-05-23T06:51:22;100082.97;;;21.83;47.15
47785;BME280;35233;55.686;37.848;2023-05-23T06:53:48;100081.69;;;21.89;47.12
47785;BME280;35233;55.686;37.848;2023-05-23T06:56:13;100074.59;;;21.88;47.19
47785;BME280;35233;55.686;37.848;2023-05-23T06:58:39;100070.84;;;21.90;47.30
47785;BME280;35233;55.686;37.848;2023-05-23T07:01:05;100082.25;;;21.94;46.96
47785;BME280;35233;55.686;37.848;2023-05-23T07:03:31;100076.09;;;21.92;46.97
47785;BME280;35233;55.686;37.848;2023-05-23T07:05:56;100073.31;;;21.93;47.34
47785;BME280;35233;55.686;37.848;2023-05-23T07:08:22;100071.56;;;21.92;46.97
47785;BME280;35233;55.686;37.848;2023-05-23T07:10:48;100077.06;;;21.91;47.19
47785;BME280;35233;55.686;37.848;2023-05-23T07:13:13;100082.31;;;21.92;47.55
47785;BME280;35233;55.686;37.848;2023-05-23T07:15:38;100077.06;;;21.91;47.65
47785;BME280;35233;55.686;37.848;2023-05-23T07:18:04;100074.16;;;21.94;47.79
47785;BME280;35233;55.686;37.848;2023-05-23T07:20:32;100072.22;;;21.96;47.06
47785;BME280;35233;55.686;37.848;2023-05-23T07:22:57;100080.41;;;22.07;46.92
47785;BME280;35233;55.686;37.848;2023-05-23T07:25:23;100079.97;;;22.13;46.86
47785;BME280;35233;55.686;37.848;2023-05-23T07:27:49;100082.31;;;22.20;46.73
47785;BME280;35233;55.686;37.848;2023-05-23T07:30:14;100087.03;;;22.29;46.69
47785;BME280;35233;55.686;37.848;2023-05-23T07:32:41;100074.44;;;22.29;46.18
47785;BME280;35233;55.686;37.848;2023-05-23T07:35:06;100085.41;;;22.39;46.42
47785;BME280;35233;55.686;37.848;2023-05-23T07:37:32;100090.69;;;22.41;46.26
47785;BME280;35233;55.686;37.848;2023-05-23T07:39:57;100088.41;;;22.47;46.16
47785;BME280;35233;55.686;37.848;2023-05-23T07:42:23;100083.03;;;22.47;46.01
47785;BME280;35233;55.686;37.848;2023-05-23T07:44:48;100090.13;;;22.48;46.06
47785;BME280;35233;55.686;37.848;2023-05-23T07:47:14;100096.50;;;22.47;45.95
47785;BME280;35233;55.686;37.848;2023-05-23T07:49:43;100090.78;;;22.39;46.07
47785;BME280;35233;55.686;37.848;2023-05-23T07:52:09;100099.31;;;22.33;46.14
47785;BME280;35233;55.686;37.848;2023-05-23T07:54:34;100095.75;;;22.32;46.24
47785;BME280;35233;55.686;37.848;2023-05-23T07:57:00;100095.63;;;22.34;46.30
47785;BME280;35233;55.686;37.848;2023-05-23T07:59:25;100099.41;;;22.44;46.21
47785;BME280;35233;55.686;37.848;2023-05-23T08:01:51;100095.31;;;22.51;46.00
47785;BME280;35233;55.686;37.848;2023-05-23T08:04:17;100099.53;;;22.55;45.78
47785;BME280;35233;55.686;37.848;2023-05-23T08:06:42;100098.97;;;22.50;45.82
47785;BME280;35233;55.686;37.848;2023-05-23T08:09:11;100099.72;;;22.52;45.87
47785;BME280;35233;55.686;37.848;2023-05-23T08:11:37;100095.97;;;22.55;45.61
47785;BME280;35233;55.686;37.848;2023-05-23T08:14:03;100102.66;;;22.49;45.73
47785;BME280;35233;55.686;37.848;2023-05-23T08:16:28;100106.28;;;22.48;45.88
47785;BME280;35233;55.686;37.848;2023-05-23T08:18:53;100098.66;;;22.42;46.22
47785;BME280;35233;55.686;37.848;2023-05-23T08:21:19;100089.50;;;22.32;46.15
47785;BME280;35233;55.686;37.848;2023-05-23T08:23:45;100094.88;;;22.45;46.01
47785;BME280;35233;55.686;37.848;2023-05-23T08:26:10;100087.38;;;22.37;46.00
47785;BME280;35233;55.686;37.848;2023-05-23T08:28:36;100095.31;;;22.51;45.77
47785;BME280;35233;55.686;37.848;2023-05-23T08:31:01;100095.53;;;22.48;45.97
47785;BME280;35233;55.686;37.848;2023-05-23T08:33:27;100089.63;;;22.43;45.90
47785;BME280;35233;55.686;37.848;2023-05-23T08:35:53;100096.16;;;22.39;46.22
47785;BME280;35233;55.686;37.848;2023-05-23T08:38:18;100100.47;;;22.42;46.05
47785;BME280;35233;55.686;37.848;2023-05-23T08:40:50;100088.44;;;22.34;46.20
47785;BME280;35233;55.686;37.848;2023-05-23T08:43:19;100092.50;;;22.27;46.28
47785;BME280;35233;55.686;37.848;2023-05-23T08:45:44;100082.50;;;22.17;46.58
47785;BME280;35233;55.686;37.848;2023-05-23T08:48:12;100081.47;;;22.05;46.76
47785;BME280;35233;55.686;37.848;2023-05-23T08:50:39;100091.94;;;21.97;47.13
47785;BME280;35233;55.686;37.848;2023-05-23T08:53:08;100089.44;;;21.93;46.85
47785;BME280;35233;55.686;37.848;2023-05-23T08:55:36;100092.53;;;21.87;47.46
47785;BME280;35233;55.686;37.848;2023-05-23T08:58:02;100095.97;;;21.77;47.56
47785;BME280;35233;55.686;37.848;2023-05-23T09:00:28;100098.88;;;21.74;47.62
47785;BME280;35233;55.686;37.848;2023-05-23T09:02:54;100104.88;;;21.64;47.55
47785;BME280;35233;55.686;37.848;2023-05-23T09:05:20;100105.09;;;21.61;47.81
47785;BME280;35233;55.686;37.848;2023-05-23T09:07:47;100107.34;;;21.67;47.30
47785;BME280;35233;55.686;37.848;2023-05-23T09:10:14;100118.63;;;21.73;47.57
47785;BME280;35233;55.686;37.848;2023-05-23T09:12:44;100110.91;;;21.68;47.35
47785;BME280;35233;55.686;37.848;2023-05-23T09:15:10;100091.06;;;21.56;47.92
47785;BME280;35233;55.686;37.848;2023-05-23T09:17:36;100119.91;;;21.67;47.88
47785;BME280;35233;55.686;37.848;2023-05-23T09:20:03;100116.38;;;21.66;47.44
47785;BME280;35233;55.686;37.848;2023-05-23T09:22:34;100110.69;;;21.71;47.15
47785;BME280;35233;55.686;37.848;2023-05-23T09:25:01;100119.63;;;21.72;47.54
47785;BME280;35233;55.686;37.848;2023-05-23T09:27:26;100125.56;;;21.77;47.49
47785;BME280;35233;55.686;37.848;2023-05-23T09:30:07;100122.53;;;21.81;47.63
47785;BME280;35233;55.686;37.848;2023-05-23T09:32:33;100124.50;;;21.79;47.23
47785;BME280;35233;55.686;37.848;2023-05-23T09:35:02;100119.19;;;21.78;47.27
47785;BME280;35233;55.686;37.848;2023-05-23T09:37:36;100119.34;;;21.89;47.45
47785;BME280;35233;55.686;37.848;2023-05-23T09:40:09;100127.19;;;21.92;47.21
47785;BME280;35233;55.686;37.848;2023-05-23T09:42:41;100128.69;;;21.96;46.74
47785;BME280;35233;55.686;37.848;2023-05-23T09:45:08;100117.75;;;21.99;47.12
47785;BME280;35233;55.686;37.848;2023-05-23T09:47:34;100118.16;;;21.93;47.13
47785;BME280;35233;55.686;37.848;2023-05-23T09:49:59;100131.41;;;21.96;46.75
47785;BME280;35233;55.686;37.848;2023-05-23T09:52:25;100118.91;;;21.95;46.86
47785;BME280;35233;55.686;37.848;2023-05-23T09:54:51;100126.22;;;21.93;46.97
47785;BME280;35233;55.686;37.848;2023-05-23T09:57:18;100125.28;;;21.94;46.80
47785;BME280;35233;55.686;37.848;2023-05-23T10:05:39;100128.19;;;21.91;47.20
47785;BME280;35233;55.686;37.848;2023-05-23T10:08:20;100109.31;;;21.78;46.90
47785;BME280;35233;55.686;37.848;2023-05-23T10:16:14;100125.97;;;21.70;47.49
47785;BME280;35233;55.686;37.848;2023-05-23T10:18:44;100126.81;;;21.71;47.59
47785;BME280;35233;55.686;37.848;2023-05-23T10:21:18;100125.44;;;21.78;47.51
47785;BME280;35233;55.686;37.848;2023-05-23T10:23:45;100124.56;;;21.78;47.11
47785;BME280;35233;55.686;37.848;2023-05-23T10:26:12;100128.34;;;21.75;47.55
47785;BME280;35233;55.686;37.848;2023-05-23T10:28:39;100121.31;;;21.73;46.95
47785;BME280;35233;55.686;37.848;2023-05-23T10:31:06;100125.84;;;21.72;47.24
47785;BME280;35233;55.686;37.848;2023-05-23T10:33:36;100124.13;;;21.71;47.59
47785;BME280;35233;55.686;37.848;2023-05-23T10:36:17;100130.16;;;21.75;47.19
47785;BME280;35233;55.686;37.848;2023-05-23T10:41:44;100130.16;;;21.75;47.10
47785;BME280;35233;55.686;37.848;2023-05-23T10:44:27;100130.00;;;21.63;47.21
47785;BME280;35233;55.686;37.848;2023-05-23T10:46:54;100129.13;;;21.50;48.08
47785;BME280;35233;55.686;37.848;2023-05-23T10:49:36;100141.34;;;21.41;48.23
47785;BME280;35233;55.686;37.848;2023-05-23T10:52:22;100129.22;;;21.34;48.30
47785;BME280;35233;55.686;37.848;2023-05-23T10:54:54;100134.03;;;21.29;48.39
47785;BME280;35233;55.686;37.848;2023-05-23T10:57:25;100121.31;;;21.18;48.03
47785;BME280;35233;55.686;37.848;2023-05-23T10:59:54;100140.38;;;21.28;48.48
47785;BME280;35233;55.686;37.848;2023-05-23T11:02:46;100134.13;;;21.28;47.90
47785;BME280;35233;55.686;37.848;2023-05-23T11:05:22;100136.72;;;21.29;48.39
47785;BME280;35233;55.686;37.848;2023-05-23T11:08:22;100134.72;;;21.33;48.10
47785;BME280;35233;55.686;37.848;2023-05-23T11:11:04;100136.53;;;21.32;48.15
47785;BME280;35233;55.686;37.848;2023-05-23T11:14:02;100139.72;;;21.39;48.15
47785;BME280;35233;55.686;37.848;2023-05-23T11:16:39;100129.34;;;21.33;48.02
47785;BME280;35233;55.686;37.848;2023-05-23T11:21:44;100127.59;;;21.46;47.62
47785;BME280;35233;55.686;37.848;2023-05-23T11:24:09;100131.50;;;21.55;47.39
47785;BME280;35233;55.686;37.848;2023-05-23T11:26:35;100118.91;;;21.55;47.72
47785;BME280;35233;55.686;37.848;2023-05-23T11:29:01;100124.84;;;21.60;47.78
47785;BME280;35233;55.686;37.848;2023-05-23T11:31:28;100121.31;;;21.73;47.52
47785;BME280;35233;55.686;37.848;2023-05-23T11:33:54;100119.19;;;21.78;46.98
47785;BME280;35233;55.686;37.848;2023-05-23T11:36:21;100122.88;;;21.89;46.80
47785;BME280;35233;55.686;37.848;2023-05-23T11:38:49;100118.38;;;21.90;46.41
47785;BME280;35233;55.686;37.848;2023-05-23T11:41:17;100117.06;;;21.83;46.95
47785;BME280;35233;55.686;37.848;2023-05-23T11:43:52;100121.69;;;21.81;46.63
47785;BME280;35233;55.686;37.848;2023-05-23T11:46:18;100106.81;;;21.75;47.21
47785;BME280;35233;55.686;37.848;2023-05-23T11:48:47;100119.97;;;21.80;46.88
47785;BME280;35233;55.686;37.848;2023-05-23T11:51:13;100112.91;;;21.91;46.74
47785;BME280;35233;55.686;37.848;2023-05-23T11:53:40;100104.50;;;21.96;46.76
47785;BME280;35233;55.686;37.848;2023-05-23T11:56:06;100102.91;;;22.06;46.45
47785;BME280;35233;55.686;37.848;2023-05-23T11:58:34;100107.88;;;22.12;45.97
47785;BME280;35233;55.686;37.848;2023-05-23T12:01:06;100098.09;;;22.11;46.43
47785;BME280;35233;55.686;37.848;2023-05-23T12:03:46;100082.66;;;22.01;46.32
47785;BME280;35233;55.686;37.848;2023-05-23T12:06:17;100075.44;;;21.88;46.71
47785;BME280;35233;55.686;37.848;2023-05-23T12:08:43;100079.97;;;21.88;46.83
47785;BME280;35233;55.686;37.848;2023-05-23T12:11:09;100069.22;;;21.88;46.95
47785;BME280;35233;55.686;37.848;2023-05-23T12:13:36;100060.59;;;21.83;46.80
47785;BME280;35233;55.686;37.848;2023-05-23T12:16:02;100068.31;;;21.87;46.64
47785;BME280;35233;55.686;37.848;2023-05-23T12:18:30;100069.00;;;21.91;46.69
47785;BME280;35233;55.686;37.848;2023-05-23T12:21:02;100063.50;;;21.92;47.12
47785;BME280;35233;55.686;37.848;2023-05-23T12:23:30;100060.94;;;21.91;46.79
47785;BME280;35233;55.686;37.848;2023-05-23T12:25:59;100067.81;;;21.95;46.65
47785;BME280;35233;55.686;37.848;2023-05-23T12:28:38;100049.41;;;21.89;46.97
47785;BME280;35233;55.686;37.848;2023-05-23T12:31:19;100056.75;;;22.00;46.71
47785;BME280;35233;55.686;37.848;2023-05-23T12:36:29;100049.44;;;22.14;46.40
47785;BME280;35233;55.686;37.848;2023-05-23T12:39:04;100040.81;;;22.09;46.35
47785;BME280;35233;55.686;37.848;2023-05-23T12:41:31;100036.41;;;22.08;46.77
47785;BME280;35233;55.686;37.848;2023-05-23T12:43:57;100028.88;;;22.01;46.47
47785;BME280;35233;55.686;37.848;2023-05-23T12:46:24;100035.75;;;22.05;46.71
47785;BME280;35233;55.686;37.848;2023-05-23T12:48:50;100042.66;;;22.09;46.61
47785;BME280;35233;55.686;37.848;2023-05-23T12:51:17;100037.13;;;22.10;46.41
47785;BME280;35233;55.686;37.848;2023-05-23T12:53:42;100046.34;;;22.21;46.43
47785;BME280;35233;55.686;37.848;2023-05-23T12:56:08;100034.59;;;22.22;46.35
47785;BME280;35233;55.686;37.848;2023-05-23T13:01:19;100010.38;;;22.22;46.13
47785;BME280;35233;55.686;37.848;2023-05-23T13:03:44;100039.66;;;22.39;46.04
47785;BME280;35233;55.686;37.848;2023-05-23T13:06:10;100033.53;;;22.37;45.84
47785;BME280;35233;55.686;37.848;2023-05-23T13:08:36;100034.59;;;22.34;46.05
47785;BME280;35233;55.686;37.848;2023-05-23T13:11:02;100038.16;;;22.35;46.25
47785;BME280;35233;55.686;37.848;2023-05-23T13:13:28;100034.69;;;22.33;46.24
47785;BME280;35233;55.686;37.848;2023-05-23T13:15:54;100043.97;;;22.29;46.60
47785;BME280;35233;55.686;37.848;2023-05-23T13:18:20;100041.50;;;22.26;46.21
47785;BME280;35233;55.686;37.848;2023-05-23T13:20:46;100041.94;;;22.20;46.67
47785;BME280;35233;55.686;37.848;2023-05-23T13:23:12;100036.06;;;22.13;47.05
47785;BME280;35233;55.686;37.848;2023-05-23T13:25:38;100026.16;;;22.13;46.93